West Unity, OH

9:43 PM EST on February 08, 2016 (GMT -0500)
4 Miles NW Archbold, OH | | Change Station
CLOSE
Current Station
Personal Weather Station
Location: Archbold, OH
Elevation: 719 ft
Nearby Weather Stations

Elev 719 ft 41.57 °N, 84.36 °W | Updated 28 seconds ago

Overcast
Overcast
32.7 °F
Feels Like 24 °F
N
10.3
Wind Variable Wind from West
Gusts 12.3 mph

Today
High -- | Low -- °F
--% Chance of Precip.
Yesterday
High -- | Low -- °F
Precip. -- in
Pressure 29.65 in
Visibility 10.0 miles
Clouds Overcast 1300 ft
Windchill 24 °F
Dew Point 26 °F
Humidity 76%
Rainfall 0.00 in
Snow Depth Not available.
7:42 AM 6:01 PM
New Moon, 0% visible
SPECI KDFI 090231Z AUTO VRB05KT 10SM OVC013 01/M03 A2965 RMK AO2 T00061028
Pressure 29.65 in
Visibility 10.0 miles
Clouds Overcast 1300 ft
Windchill 24 °F
Dew Point 26 °F
Humidity 76%
Rainfall 0.00 in
Snow Depth Not available.
7:42 AM 6:01 PM
New Moon, 0% visible
SPECI KDFI 090231Z AUTO VRB05KT 10SM OVC013 01/M03 A2965 RMK AO2 T00061028

10-Day Weather Forecast

Almanac

Astronomy

Feb. 08, 2016 Rise Set
Actual Time
Civil Twilight
Nautical Twilight
Astronomical Twilight
Moon
Length of Visible Light
Length of Day
Tomorrow will be .
, % of the Moon is Illuminated

Today's Extremes

State Highs State Lows

Community

WunderPhotos

Upload Photos

1,891,527 photos uploaded!

WunderBlog® & News

Nearby

Air Quality

  Air Quality AQ Index Pollutant
Not available.

Snow Depth

Station Depth Elevation

Earthquake Activity

City Distance Mag. Time & Date
Minimum magnitude displayed is 2.5.

Coastal Water Temperatures

Place Temperature

Stations

Nearby Weather Stations

Station Location Temp. Windchill Dew Point Humidity Wind Precip. Elev Updated Type
                   

Watches & Warnings

There are currently no watches in effect.